메인 페이지
METAR-TAF:

METAR-TAF

공항 :

떤선녓 국제공항

호찌민, 베트남

위도: 10-49N, 경도: 106-40E, 고도: 19m

현재 날씨관측

예보는 33분 전, 15:00시(UTC)에 발표되었습니다.
4kt
온도 30°C
습도 79%
기압 1012 hPa
시정 10km 이상
고도 1700ft 상공 구름 보통
고도 5000ft 상공 구름 보통

METAR: VVTS 311500Z 19004KT 9999 SCT017 SCT050 30/26 Q1012 NOSIG

시각: 22:33 (15:33 UTC)

예보

예보는 4 시간 33분 전, 11:00시(UTC)에 발표되었습니다.
예보 대상 시간: 31일 12시부터 01일 18시까지 (UTC)
남서7kt
시정 10km 이상
고도 1700ft 상공 구름 보통
고도 4000ft 상공 구름 보통
일시적
01일 04시부터 01일 08시까지 (UTC)
서남서15kt, 순간 최대 풍속 28kt
시정: 3000m
고도 1500ft 상공 구름 많음
고도 1700ft 상공 구름 보통, 적란운.
뇌우, 비

TAF: VVTS 311100Z 3112/0118 22007KT 9999 SCT017 SCT040 TEMPO 0104/0108 24015G28KT 3000 TSRA BKN015 SCT017CB

4,000개 이상의 공항 관측 자료 및 예보 (METAR 및 TAF 보고).

지도상에서 검색 가능한 기상관측소가 노란 점과 빨간 점으로 표시되어 있습니다.

기상관측소 명을 보려면 표시 위로 마우스를 이동하세요.

날씨 관측과 예보를 보려면 클릭하세요.

지도 변경 : 확대하려면 엑스 표시가 있는 녹색 버튼, 축소하려면 빼기 표시가 있는 녹색 버튼, 다음 페이지의 지도를 보려면 녹색 화살표를 클릭하세요.


METAR-TAF: